Latest Coastal Weather Observations for Point Stuart

IDD60701

Issued at 1:55 pm CST Thursday 21 August 2014 (issued every 10 minutes, with the page automatically refreshed every 10 minutes)

About coastal observations | Map of coastal stations | Coastal observations for NT | Marine services | Other Formats
Station Details ID: 014254 Name: POINT STUART Lat: -12.24 Lon: 131.88 Height: 1.0 m
Data from the previous 72 hours. | See also: Recent months for locations in Northern Territory
Date/Time
CST
Temp

°C
Wind Pressure Rain
since 9am
mm
Weather Cloud Vis
km
Sea
Height
m
Swell
Dir
 
Speed
knots
Gust
knots
hPa Trend Height
m
Period
s
Dir
21/01:30pm 29.4 NE 7 12 1013.4 - 0.0 - - - - - - -
21/01:00pm 30.2 ENE 12 17 1013.8 - 0.0 - - - - - - -
21/12:30pm 29.4 E 12 18 1014.3 - 0.0 - - - - - - -
21/12:00pm 29.2 ENE 13 17 1014.8 - 0.0 - - - - - - -
21/11:30am 28.8 E 12 17 1015.1 - 0.0 - - - - - - -
21/11:00am 27.5 E 13 17 1015.5 - 0.0 - - - - - - -
21/10:30am 27.6 ESE 13 18 1015.8 - 0.0 - - - - - - -
21/10:00am 26.2 SE 13 18 1015.9 - 0.0 - - - - - - -
21/09:30am 23.9 SE 10 14 1015.9 - 0.0 - - - - - - -
21/09:00am 22.5 SE 10 12 1015.8 - 0.0 - - - - - - -
21/08:30am 21.2 SE 7 11 1015.4 - 0.0 - - - - - - -
21/08:00am 19.0 NNW 3 4 1014.9 - 0.0 - - - - - - -
21/07:30am 16.8 WSW 3 4 1014.4 - 0.0 - - - - - - -
21/07:00am 16.4 SSE 1 3 1013.9 - 0.0 - - - - - - -
21/06:30am 17.1 SSE 5 7 1013.7 - 0.0 - - - - - - -
21/06:00am 16.5 SSE 5 6 1013.6 - 0.0 - - - - - - -
21/05:30am 16.6 SSE 5 6 1013.5 - 0.0 - - - - - - -
21/05:00am 16.3 SSE 6 7 1013.4 - 0.0 - - - - - - -
21/04:30am 15.9 S 4 5 1013.1 - 0.0 - - - - - - -
21/04:00am 15.6 S 3 4 1012.9 - 0.0 - - - - - - -
21/03:30am 15.8 SSW 3 4 1013.0 - 0.0 - - - - - - -
21/03:00am 16.5 S 3 4 1013.2 - 0.0 - - - - - - -
21/02:30am 16.9 S 3 4 1013.6 - 0.0 - - - - - - -
21/02:00am 17.2 S 5 5 1013.7 - 0.0 - - - - - - -
21/01:30am 17.8 S 3 4 1014.0 - 0.0 - - - - - - -
21/01:00am 17.7 S 4 5 1014.2 - 0.0 - - - - - - -
21/12:30am 17.7 S 4 5 1014.6 - 0.0 - - - - - - -
21/12:00am 18.2 S 4 5 1014.6 - 0.0 - - - - - - -
 
Date/Time
CST
Temp

°C
Wind Pressure Rain
since 9am
mm
Weather Cloud Vis
km
Sea
Height
m
Swell
Dir
 
Speed
knots
Gust
knots
hPa Trend Height
m
Period
s
Dir
20/11:30pm 17.5 WNW 3 5 1014.5 - 0.0 - - - - - - -
20/11:00pm 18.1 WNW 5 5 1014.4 - 0.0 - - - - - - -
20/10:30pm 17.8 CALM 0 0 1014.3 - 0.0 - - - - - - -
20/10:00pm 17.2 CALM 0 0 1014.4 - 0.0 - - - - - - -
20/09:30pm 17.8 CALM 0 0 1014.2 - 0.0 - - - - - - -
20/09:00pm 18.5 WNW 3 3 1014.0 - 0.0 - - - - - - -
20/08:30pm 19.3 CALM 0 0 1013.7 - 0.0 - - - - - - -
20/08:00pm 20.1 CALM 0 0 1013.3 - 0.0 - - - - - - -
20/07:30pm 21.2 WNW 3 3 1013.1 - 0.0 - - - - - - -
20/07:00pm 22.3 WNW 4 5 1012.7 - 0.0 - - - - - - -
20/06:30pm 24.3 WNW 5 5 1012.5 - 0.0 - - - - - - -
20/06:00pm 26.0 WNW 7 9 1012.4 - 0.0 - - - - - - -
20/05:30pm 27.2 WNW 7 9 1012.3 - 0.0 - - - - - - -
20/05:00pm 27.6 N 7 11 1012.1 - 0.0 - - - - - - -
20/04:30pm 27.5 N 6 10 1012.1 - 0.0 - - - - - - -
20/04:00pm 27.6 N 8 13 1012.1 - 0.0 - - - - - - -
20/03:30pm 28.2 N 7 12 1012.3 - 0.0 - - - - - - -
20/03:00pm 28.1 N 9 12 1012.7 - 0.0 - - - - - - -
20/02:30pm 28.3 NNE 8 12 1012.8 - 0.0 - - - - - - -
20/02:00pm 29.3 NNE 7 11 1013.3 - 0.0 - - - - - - -
20/01:30pm 29.9 NNE 7 10 1013.8 - 0.0 - - - - - - -
20/01:00pm 29.4 NNE 7 11 1014.4 - 0.0 - - - - - - -
20/12:30pm 29.1 NE 8 12 1015.1 - 0.0 - - - - - - -
20/12:00pm 27.7 E 7 11 1015.7 - 0.0 - - - - - - -
20/11:30am 27.2 E 8 11 1016.0 - 0.0 - - - - - - -
20/11:00am 26.1 E 9 11 1016.3 - 0.0 - - - - - - -
20/10:30am 25.5 ENE 11 14 1016.7 - 0.0 - - - - - - -
20/10:00am 25.0 E 12 14 1016.9 - 0.0 - - - - - - -
20/09:30am 24.6 E 11 15 1016.7 - 0.0 - - - - - - -
20/09:00am 24.5 ENE 11 15 1016.6 - 0.2 - - - - - - -
20/08:30am 24.2 ENE 10 14 1016.2 - 0.2 - - - - - - -
20/08:00am 23.0 ENE 9 12 1016.0 - 0.2 - - - - - - -
20/07:30am 20.3 NE 6 8 1015.8 - 0.2 - - - - - - -
20/07:00am 15.3 ENE 4 5 1015.5 - 0.2 - - - - - - -
20/06:30am 14.6 ENE 4 4 1015.3 - 0.2 - - - - - - -
20/06:00am 14.2 ENE 4 4 1015.2 - 0.2 - - - - - - -
20/05:30am 14.2 ENE 3 4 1014.9 - 0.2 - - - - - - -
20/05:00am 13.7 ENE 5 6 1014.5 - 0.2 - - - - - - -
20/04:30am 13.4 ENE 6 6 1014.3 - 0.2 - - - - - - -
20/04:00am 13.6 CALM 0 2 1014.3 - 0.2 - - - - - - -
20/03:30am 13.9 SSW 2 3 1014.3 - 0.2 - - - - - - -
20/03:00am 14.7 SSW 2 5 1014.5 - 0.2 - - - - - - -
20/02:30am 15.0 S 4 5 1014.6 - 0.2 - - - - - - -
20/02:00am 14.5 CALM 0 0 1014.4 - 0.2 - - - - - - -
20/01:30am 15.8 S 2 3 1014.5 - 0.2 - - - - - - -
20/01:00am 15.6 S 3 5 1014.5 - 0.2 - - - - - - -
20/12:30am 16.6 S 2 3 1014.8 - 0.2 - - - - - - -
20/12:00am 17.0 S 4 5 1015.1 - 0.2 - - - - - - -
 
Date/Time
CST
Temp

°C
Wind Pressure Rain
since 9am
mm
Weather Cloud Vis
km
Sea
Height
m
Swell
Dir
 
Speed
knots
Gust
knots
hPa Trend Height
m
Period
s
Dir
19/11:30pm 16.6 SW 6 9 1015.2 - 0.2 - - - - - - -
19/11:00pm 16.4 SW 3 4 1014.7 - 0.2 - - - - - - -
19/10:30pm 16.6 CALM 0 4 1014.4 - 0.2 - - - - - - -
19/10:00pm 16.6 SW 2 4 1014.3 - 0.2 - - - - - - -
19/09:30pm 16.9 SW 3 4 1014.0 - 0.2 - - - - - - -
19/09:00pm 18.5 SW 3 4 1014.0 - 0.2 - - - - - - -
19/08:30pm 18.2 WNW 1 5 1013.8 - 0.2 - - - - - - -
19/08:00pm 19.4 CALM 0 0 1013.6 - 0.2 - - - - - - -
19/07:30pm 20.4 NW 4 5 1013.2 - 0.2 - - - - - - -
19/07:00pm 22.1 NNW 4 5 1012.8 - 0.2 - - - - - - -
19/06:30pm 24.2 NNW 5 7 1012.4 - 0.2 - - - - - - -
19/06:00pm 25.6 N 7 9 1012.3 - 0.2 - - - - - - -
19/05:30pm 26.8 NNW 7 10 1012.4 - 0.2 - - - - - - -
19/05:00pm 27.0 NNW 8 12 1012.5 - 0.2 - - - - - - -
19/04:30pm 27.1 N 9 13 1012.7 - 0.2 - - - - - - -
19/04:00pm 28.1 N 8 12 1012.8 - 0.2 - - - - - - -
19/03:30pm 28.5 N 8 13 1012.9 - 0.0 - - - - - - -
19/03:00pm 28.5 NNE 9 15 1013.2 - 0.0 - - - - - - -
19/02:30pm 28.9 N 8 14 1013.6 - 0.0 - - - - - - -
19/02:00pm 28.0 N 7 11 1014.1 - 0.0 - - - - - - -
19/01:30pm 28.5 NNE 8 14 1014.6 - 0.0 - - - - - - -
19/01:00pm 28.2 NE 8 13 1015.1 - 0.0 - - - - - - -
19/12:30pm 29.2 NE 8 14 1015.7 - 0.0 - - - - - - -
19/12:00pm 28.4 NE 10 14 1016.1 - 0.0 - - - - - - -
19/11:30am 27.2 ENE 11 16 1016.6 - 0.0 - - - - - - -
19/11:00am 27.2 E 12 15 1016.8 - 0.0 - - - - - - -
19/10:30am 26.8 E 10 13 1017.2 - 0.0 - - - - - - -
19/10:00am 25.5 E 8 11 1017.6 - 0.0 - - - - - - -
19/09:30am 24.2 E 9 11 1017.6 - 0.0 - - - - - - -
19/09:00am 22.8 E 10 13 1017.6 - 1.0 - - - - - - -
19/08:30am 21.3 ESE 9 11 1017.4 - 1.0 - - - - - - -
19/08:00am 19.7 ESE 7 8 1017.2 - 1.0 - - - - - - -
19/07:30am 17.7 ESE 6 7 1016.8 - 1.0 - - - - - - -
19/07:00am 14.1 ESE 5 8 1016.4 - 1.0 - - - - - - -
19/06:30am 14.5 S 2 4 1016.2 - 1.0 - - - - - - -
19/06:00am 14.4 SSE 1 3 1015.9 - 1.0 - - - - - - -
19/05:30am 15.0 CALM 0 0 1015.7 - 1.0 - - - - - - -
19/05:00am 14.7 SE 3 4 1015.7 - 1.0 - - - - - - -
19/04:30am 13.7 ESE 4 8 1015.6 - 1.0 - - - - - - -
19/04:00am 14.3 CALM 0 0 1015.3 - 1.0 - - - - - - -
19/03:30am 15.5 SSW 3 4 1015.3 - 1.0 - - - - - - -
19/03:00am 15.4 SSW 3 4 1015.5 - 1.0 - - - - - - -
19/02:30am 15.0 CALM 0 2 1015.5 - 1.0 - - - - - - -
19/02:00am 16.2 SSE 3 4 1015.6 - 1.0 - - - - - - -
19/01:30am 17.2 S 4 4 1015.6 - 1.0 - - - - - - -
19/01:00am 17.0 S 4 6 1015.8 - 1.0 - - - - - - -
19/12:30am 16.9 S 5 5 1015.9 - 1.0 - - - - - - -
19/12:00am 16.3 SSW 6 6 1015.9 - 1.0 - - - - - - -
 
Date/Time
CST
Temp

°C
Wind Pressure Rain
since 9am
mm
Weather Cloud Vis
km
Sea
Height
m
Swell
Dir
 
Speed
knots
Gust
knots
hPa Trend Height
m
Period
s
Dir
18/11:30pm 16.4 S 4 6 1015.8 - 1.0 - - - - - - -
18/11:00pm 16.5 ENE 2 3 1015.7 - 1.0 - - - - - - -
18/10:30pm 16.2 CALM 0 0 1015.7 - 1.0 - - - - - - -
18/10:00pm 16.2 ENE 3 5 1015.6 - 1.0 - - - - - - -
18/09:30pm 17.9 SSW 4 5 1015.4 - 1.0 - - - - - - -
18/09:00pm 19.0 S 4 4 1015.1 - 1.0 - - - - - - -
18/08:30pm 18.8 S 4 4 1014.7 - 1.0 - - - - - - -
18/08:00pm 19.6 CALM 0 0 1014.4 - 1.0 - - - - - - -
18/07:30pm 20.8 SW 3 4 1014.1 - 0.8 - - - - - - -
18/07:00pm 21.6 W 4 4 1013.9 - 0.8 - - - - - - -
18/06:30pm 23.9 W 4 5 1013.7 - 0.8 - - - - - - -
18/06:00pm 25.9 NNW 5 7 1013.4 - 0.8 - - - - - - -
18/05:30pm 26.5 NNW 6 9 1013.3 - 0.8 - - - - - - -
18/05:00pm 27.4 N 7 10 1013.2 - 0.8 - - - - - - -
18/04:30pm 27.9 N 7 10 1013.1 - 0.8 - - - - - - -
18/04:00pm 28.2 N 7 12 1013.0 - 0.8 - - - - - - -
18/03:30pm 29.0 N 6 10 1013.2 - 0.0 - - - - - - -
18/03:00pm 28.4 N 8 12 1013.6 - 0.0 - - - - - - -
18/02:30pm 29.1 N 8 12 1013.8 - 0.0 - - - - - - -
18/02:00pm 28.4 N 8 11 1014.1 - 0.0 - - - - - - -

Other Formats:

Comma delimited format used in spreadsheet applications
http://www.bom.gov.au/fwo/IDD60701/IDD60701.94127.axf

JavaScript Object Notation format (JSON) in row-major order
http://www.bom.gov.au/fwo/IDD60701/IDD60701.94127.json